sensor_id;sensor_type;location;lat;lon;timestamp;P1;durP1;ratioP1;P2;durP2;ratioP2
10142;SDS011;5112;54.088;13.446;2023-02-13T00:08:04;6.20;;;3.67;;
10142;SDS011;5112;54.088;13.446;2023-02-13T00:18:05;4.03;;;3.43;;
10142;SDS011;5112;54.088;13.446;2023-02-13T00:28:08;3.85;;;3.45;;
10142;SDS011;5112;54.088;13.446;2023-02-13T00:38:10;2.83;;;2.63;;
10142;SDS011;5112;54.088;13.446;2023-02-13T00:48:13;3.43;;;3.03;;
10142;SDS011;5112;54.088;13.446;2023-02-13T00:58:15;5.30;;;3.43;;
10142;SDS011;5112;54.088;13.446;2023-02-13T01:08:19;3.83;;;3.53;;
10142;SDS011;5112;54.088;13.446;2023-02-13T01:18:21;4.27;;;3.30;;
10142;SDS011;5112;54.088;13.446;2023-02-13T01:28:24;5.80;;;4.10;;
10142;SDS011;5112;54.088;13.446;2023-02-13T01:38:26;4.67;;;4.00;;
10142;SDS011;5112;54.088;13.446;2023-02-13T01:48:29;5.53;;;4.00;;
10142;SDS011;5112;54.088;13.446;2023-02-13T01:58:31;5.97;;;4.57;;
10142;SDS011;5112;54.088;13.446;2023-02-13T02:08:37;6.03;;;5.03;;
10142;SDS011;5112;54.088;13.446;2023-02-13T02:18:39;5.77;;;4.80;;
10142;SDS011;5112;54.088;13.446;2023-02-13T02:28:49;9.03;;;5.67;;
10142;SDS011;5112;54.088;13.446;2023-02-13T02:39:13;7.00;;;5.33;;
10142;SDS011;5112;54.088;13.446;2023-02-13T02:49:22;7.13;;;5.27;;
10142;SDS011;5112;54.088;13.446;2023-02-13T02:59:43;5.43;;;4.80;;
10142;SDS011;5112;54.088;13.446;2023-02-13T03:10:13;6.03;;;4.37;;
10142;SDS011;5112;54.088;13.446;2023-02-13T03:20:41;6.33;;;4.43;;
10142;SDS011;5112;54.088;13.446;2023-02-13T03:31:18;5.43;;;3.93;;
10142;SDS011;5112;54.088;13.446;2023-02-13T03:41:26;6.83;;;4.07;;
10142;SDS011;5112;54.088;13.446;2023-02-13T03:51:34;5.27;;;3.53;;
10142;SDS011;5112;54.088;13.446;2023-02-13T04:01:42;5.83;;;4.00;;
10142;SDS011;5112;54.088;13.446;2023-02-13T04:11:48;3.43;;;2.93;;
10142;SDS011;5112;54.088;13.446;2023-02-13T04:21:58;5.43;;;3.27;;
10142;SDS011;5112;54.088;13.446;2023-02-13T04:32:01;4.10;;;3.23;;
10142;SDS011;5112;54.088;13.446;2023-02-13T04:42:04;3.57;;;2.90;;
10142;SDS011;5112;54.088;13.446;2023-02-13T04:52:05;9.37;;;3.83;;
10142;SDS011;5112;54.088;13.446;2023-02-13T05:02:08;3.23;;;2.93;;
10142;SDS011;5112;54.088;13.446;2023-02-13T05:12:10;3.77;;;3.20;;
10142;SDS011;5112;54.088;13.446;2023-02-13T05:22:13;3.57;;;2.97;;
10142;SDS011;5112;54.088;13.446;2023-02-13T05:32:32;4.07;;;3.53;;
10142;SDS011;5112;54.088;13.446;2023-02-13T05:42:35;3.13;;;2.83;;
10142;SDS011;5112;54.088;13.446;2023-02-13T05:52:37;3.30;;;3.00;;
10142;SDS011;5112;54.088;13.446;2023-02-13T06:02:40;3.57;;;2.87;;
10142;SDS011;5112;54.088;13.446;2023-02-13T06:12:41;3.43;;;2.80;;
10142;SDS011;5112;54.088;13.446;2023-02-13T06:22:47;3.63;;;2.67;;
10142;SDS011;5112;54.088;13.446;2023-02-13T06:32:49;4.17;;;3.13;;
10142;SDS011;5112;54.088;13.446;2023-02-13T06:42:52;4.00;;;3.23;;
10142;SDS011;5112;54.088;13.446;2023-02-13T06:52:53;6.07;;;3.93;;
10142;SDS011;5112;54.088;13.446;2023-02-13T07:03:01;4.63;;;3.73;;
10142;SDS011;5112;54.088;13.446;2023-02-13T07:13:04;4.27;;;3.63;;
10142;SDS011;5112;54.088;13.446;2023-02-13T07:23:08;6.80;;;3.80;;
10142;SDS011;5112;54.088;13.446;2023-02-13T07:33:10;4.47;;;3.90;;
10142;SDS011;5112;54.088;13.446;2023-02-13T07:43:13;5.03;;;4.27;;
10142;SDS011;5112;54.088;13.446;2023-02-13T07:53:15;5.67;;;4.63;;
10142;SDS011;5112;54.088;13.446;2023-02-13T08:03:18;5.60;;;4.90;;
10142;SDS011;5112;54.088;13.446;2023-02-13T08:13:20;7.57;;;5.83;;
10142;SDS011;5112;54.088;13.446;2023-02-13T08:23:23;7.30;;;5.57;;
10142;SDS011;5112;54.088;13.446;2023-02-13T08:33:24;6.47;;;5.83;;
10142;SDS011;5112;54.088;13.446;2023-02-13T08:43:27;7.67;;;6.43;;
10142;SDS011;5112;54.088;13.446;2023-02-13T08:53:29;6.50;;;5.90;;
10142;SDS011;5112;54.088;13.446;2023-02-13T09:03:32;7.00;;;5.50;;
10142;SDS011;5112;54.088;13.446;2023-02-13T09:13:34;8.23;;;6.50;;
10142;SDS011;5112;54.088;13.446;2023-02-13T09:23:39;9.43;;;6.60;;
10142;SDS011;5112;54.088;13.446;2023-02-13T09:33:41;6.17;;;5.40;;
10142;SDS011;5112;54.088;13.446;2023-02-13T09:43:45;7.00;;;6.13;;
10142;SDS011;5112;54.088;13.446;2023-02-13T09:53:51;7.17;;;5.33;;
10142;SDS011;5112;54.088;13.446;2023-02-13T10:14:31;5.50;;;4.90;;
10142;SDS011;5112;54.088;13.446;2023-02-13T10:24:41;8.80;;;6.13;;
10142;SDS011;5112;54.088;13.446;2023-02-13T10:34:47;8.13;;;5.50;;
10142;SDS011;5112;54.088;13.446;2023-02-13T10:45:00;7.20;;;5.50;;
10142;SDS011;5112;54.088;13.446;2023-02-13T10:55:12;6.60;;;5.97;;
10142;SDS011;5112;54.088;13.446;2023-02-13T11:05:31;6.67;;;4.83;;
10142;SDS011;5112;54.088;13.446;2023-02-13T11:15:36;8.30;;;5.17;;
10142;SDS011;5112;54.088;13.446;2023-02-13T11:25:39;7.33;;;4.90;;
10142;SDS011;5112;54.088;13.446;2023-02-13T11:35:41;4.17;;;3.40;;
10142;SDS011;5112;54.088;13.446;2023-02-13T11:45:44;3.57;;;3.27;;
10142;SDS011;5112;54.088;13.446;2023-02-13T11:55:59;9.10;;;3.87;;
10142;SDS011;5112;54.088;13.446;2023-02-13T12:06:05;4.67;;;3.13;;
10142;SDS011;5112;54.088;13.446;2023-02-13T12:16:15;4.83;;;3.50;;
10142;SDS011;5112;54.088;13.446;2023-02-13T12:26:28;6.17;;;5.57;;
10142;SDS011;5112;54.088;13.446;2023-02-13T12:36:34;5.03;;;4.43;;
10142;SDS011;5112;54.088;13.446;2023-02-13T12:46:47;4.33;;;3.20;;
10142;SDS011;5112;54.088;13.446;2023-02-13T12:56:57;6.77;;;3.37;;
10142;SDS011;5112;54.088;13.446;2023-02-13T13:07:31;7.17;;;3.97;;
10142;SDS011;5112;54.088;13.446;2023-02-13T13:17:47;7.50;;;3.93;;
10142;SDS011;5112;54.088;13.446;2023-02-13T13:28:00;3.73;;;2.97;;
10142;SDS011;5112;54.088;13.446;2023-02-13T13:38:05;5.80;;;3.53;;
10142;SDS011;5112;54.088;13.446;2023-02-13T13:48:30;5.93;;;3.50;;
10142;SDS011;5112;54.088;13.446;2023-02-13T13:58:54;5.07;;;3.20;;
10142;SDS011;5112;54.088;13.446;2023-02-13T14:09:02;3.47;;;2.70;;
10142;SDS011;5112;54.088;13.446;2023-02-13T14:19:29;5.50;;;3.30;;
10142;SDS011;5112;54.088;13.446;2023-02-13T14:29:34;4.43;;;4.03;;
10142;SDS011;5112;54.088;13.446;2023-02-13T14:39:37;3.57;;;2.60;;
10142;SDS011;5112;54.088;13.446;2023-02-13T14:49:41;5.30;;;3.30;;
10142;SDS011;5112;54.088;13.446;2023-02-13T14:59:46;3.87;;;3.07;;
10142;SDS011;5112;54.088;13.446;2023-02-13T15:09:50;3.57;;;2.67;;
10142;SDS011;5112;54.088;13.446;2023-02-13T15:20:03;4.73;;;2.30;;
10142;SDS011;5112;54.088;13.446;2023-02-13T15:30:17;4.33;;;2.87;;
10142;SDS011;5112;54.088;13.446;2023-02-13T15:40:24;4.60;;;2.20;;
10142;SDS011;5112;54.088;13.446;2023-02-13T15:50:29;5.13;;;2.80;;
10142;SDS011;5112;54.088;13.446;2023-02-13T16:00:35;3.43;;;2.53;;
10142;SDS011;5112;54.088;13.446;2023-02-13T16:10:39;4.60;;;2.73;;
10142;SDS011;5112;54.088;13.446;2023-02-13T16:20:42;6.03;;;2.73;;
10142;SDS011;5112;54.088;13.446;2023-02-13T16:30:44;4.20;;;2.83;;
10142;SDS011;5112;54.088;13.446;2023-02-13T16:40:53;7.63;;;3.23;;
10142;SDS011;5112;54.088;13.446;2023-02-13T16:50:56;3.50;;;2.97;;
10142;SDS011;5112;54.088;13.446;2023-02-13T17:00:59;3.17;;;2.87;;
10142;SDS011;5112;54.088;13.446;2023-02-13T17:11:03;4.33;;;2.93;;
10142;SDS011;5112;54.088;13.446;2023-02-13T17:21:08;6.30;;;3.30;;
10142;SDS011;5112;54.088;13.446;2023-02-13T17:31:09;5.77;;;3.90;;
10142;SDS011;5112;54.088;13.446;2023-02-13T17:41:14;5.73;;;3.67;;
10142;SDS011;5112;54.088;13.446;2023-02-13T17:51:16;4.10;;;3.43;;
10142;SDS011;5112;54.088;13.446;2023-02-13T18:01:19;5.20;;;3.17;;
10142;SDS011;5112;54.088;13.446;2023-02-13T18:11:21;6.80;;;3.73;;
10142;SDS011;5112;54.088;13.446;2023-02-13T18:21:24;4.87;;;3.50;;
10142;SDS011;5112;54.088;13.446;2023-02-13T18:31:26;4.63;;;3.57;;
10142;SDS011;5112;54.088;13.446;2023-02-13T18:41:30;3.70;;;3.40;;
10142;SDS011;5112;54.088;13.446;2023-02-13T18:51:31;4.27;;;3.80;;
10142;SDS011;5112;54.088;13.446;2023-02-13T19:01:34;3.67;;;3.37;;
10142;SDS011;5112;54.088;13.446;2023-02-13T19:11:37;6.07;;;4.87;;
10142;SDS011;5112;54.088;13.446;2023-02-13T19:21:41;5.60;;;4.40;;
10142;SDS011;5112;54.088;13.446;2023-02-13T19:31:42;6.20;;;4.23;;
10142;SDS011;5112;54.088;13.446;2023-02-13T19:41:46;4.80;;;3.77;;
10142;SDS011;5112;54.088;13.446;2023-02-13T19:51:48;4.93;;;3.90;;
10142;SDS011;5112;54.088;13.446;2023-02-13T20:01:51;4.83;;;3.90;;
10142;SDS011;5112;54.088;13.446;2023-02-13T20:11:52;5.53;;;4.10;;
10142;SDS011;5112;54.088;13.446;2023-02-13T20:21:55;5.67;;;4.20;;
10142;SDS011;5112;54.088;13.446;2023-02-13T20:31:57;4.70;;;4.27;;
10142;SDS011;5112;54.088;13.446;2023-02-13T20:42:00;5.60;;;4.82;;
10142;SDS011;5112;54.088;13.446;2023-02-13T20:52:02;6.17;;;4.17;;
10142;SDS011;5112;54.088;13.446;2023-02-13T21:02:05;4.80;;;4.30;;
10142;SDS011;5112;54.088;13.446;2023-02-13T21:12:09;4.87;;;3.93;;
10142;SDS011;5112;54.088;13.446;2023-02-13T21:22:12;5.53;;;4.03;;
10142;SDS011;5112;54.088;13.446;2023-02-13T21:32:14;4.77;;;4.17;;
10142;SDS011;5112;54.088;13.446;2023-02-13T21:42:17;5.30;;;4.50;;
10142;SDS011;5112;54.088;13.446;2023-02-13T21:52:18;5.77;;;4.43;;
10142;SDS011;5112;54.088;13.446;2023-02-13T22:02:21;6.27;;;4.17;;
10142;SDS011;5112;54.088;13.446;2023-02-13T22:12:25;5.93;;;3.73;;
10142;SDS011;5112;54.088;13.446;2023-02-13T22:22:28;4.70;;;4.13;;
10142;SDS011;5112;54.088;13.446;2023-02-13T22:32:30;4.80;;;3.73;;
10142;SDS011;5112;54.088;13.446;2023-02-13T22:42:33;6.80;;;4.73;;
10142;SDS011;5112;54.088;13.446;2023-02-13T22:52:35;9.23;;;5.30;;
10142;SDS011;5112;54.088;13.446;2023-02-13T23:02:38;5.70;;;5.20;;
10142;SDS011;5112;54.088;13.446;2023-02-13T23:12:41;7.60;;;5.43;;
10142;SDS011;5112;54.088;13.446;2023-02-13T23:22:46;9.00;;;5.27;;
10142;SDS011;5112;54.088;13.446;2023-02-13T23:32:48;6.87;;;5.47;;
10142;SDS011;5112;54.088;13.446;2023-02-13T23:42:52;8.33;;;5.43;;
10142;SDS011;5112;54.088;13.446;2023-02-13T23:52:53;5.77;;;5.10;;
